createdAt,value
2018-09-18T00:00:37.579Z,97601.97
2018-09-18T00:03:04.598Z,97595.92
2018-09-18T00:05:31.631Z,97594.09
2018-09-18T00:07:58.648Z,97591.98
2018-09-18T00:10:25.634Z,97595.41
2018-09-18T00:12:52.593Z,97593.30
2018-09-18T00:15:19.599Z,97594.09
2018-09-18T00:17:46.674Z,97593.58
2018-09-18T00:20:13.697Z,97588.32
2018-09-18T00:22:40.855Z,97586.21
2018-09-18T00:25:07.906Z,97593.30
2018-09-18T00:27:34.895Z,97586.73
2018-09-18T00:30:01.921Z,97586.73
2018-09-18T00:32:28.975Z,97585.42
2018-09-18T00:34:55.914Z,97581.48
2018-09-18T00:37:23.106Z,97579.89
2018-09-18T00:39:50.116Z,97578.85
2018-09-18T00:42:17.099Z,97579.64
2018-09-18T00:44:44.106Z,97582.00
2018-09-18T00:47:11.106Z,97583.83
2018-09-18T00:49:38.104Z,97586.21
2018-09-18T00:52:05.091Z,97574.91
2018-09-18T00:54:32.089Z,97579.64
2018-09-18T00:56:59.073Z,97577.81
2018-09-18T00:59:26.137Z,97575.70
2018-09-18T01:01:53.166Z,97583.86
2018-09-18T01:04:20.131Z,97579.64
2018-09-18T01:06:47.268Z,97580.95
2018-09-18T01:09:14.248Z,97576.23
2018-09-18T01:11:41.315Z,97580.44
2018-09-18T01:14:08.336Z,97573.88
2018-09-18T01:16:35.706Z,97571.25
2018-09-18T01:19:02.712Z,97565.99
2018-09-18T01:21:29.729Z,97565.99
2018-09-18T01:23:56.650Z,97570.20
2018-09-18T01:26:23.677Z,97562.05
2018-09-18T01:28:50.650Z,97572.55
2018-09-18T01:31:17.673Z,97567.83
2018-09-18T01:33:44.678Z,97567.30
2018-09-18T01:36:11.631Z,97569.41
2018-09-18T01:38:38.610Z,97567.30
2018-09-18T01:41:05.606Z,97569.41
2018-09-18T01:43:32.572Z,97563.88
2018-09-18T01:45:59.551Z,97568.62
2018-09-18T01:48:26.550Z,97569.14
2018-09-18T01:50:53.619Z,97569.14
2018-09-18T01:53:20.650Z,97568.62
2018-09-18T01:55:47.669Z,97575.98
2018-09-18T01:58:14.676Z,97573.88
2018-09-18T02:00:41.682Z,97568.62
2018-09-18T02:03:08.640Z,97572.03
2018-09-18T02:05:35.669Z,97579.13
2018-09-18T02:08:02.799Z,97576.50
2018-09-18T02:10:29.805Z,97570.45
2018-09-18T02:12:56.762Z,97572.55
2018-09-18T02:15:23.827Z,97576.50
2018-09-18T02:17:50.789Z,97570.73
2018-09-18T02:20:17.930Z,97578.08
2018-09-18T02:22:44.959Z,97572.55
2018-09-18T02:25:11.917Z,97582.81
2018-09-18T02:27:38.860Z,97577.54
2018-09-18T02:30:05.902Z,97581.23
2018-09-18T02:32:32.884Z,97579.92
2018-09-18T02:35:00.048Z,97579.92
2018-09-18T02:37:27.041Z,97575.19
2018-09-18T02:39:54.012Z,97575.98
2018-09-18T02:42:21.721Z,97578.08
2018-09-18T02:44:48.792Z,97575.45
2018-09-18T02:47:15.760Z,97575.98
2018-09-18T02:49:42.776Z,97579.64
2018-09-18T02:52:09.834Z,97577.29
2018-09-18T02:54:36.872Z,97579.92
2018-09-18T02:57:03.816Z,97587.80
2018-09-18T02:59:30.878Z,97583.86
2018-09-18T03:01:57.879Z,97581.51
2018-09-18T03:04:24.835Z,97581.23
2018-09-18T03:06:51.962Z,97587.28
2018-09-18T03:09:18.981Z,97582.55
2018-09-18T03:11:46.039Z,97585.17
2018-09-18T03:14:13.109Z,97576.50
2018-09-18T03:16:40.186Z,97580.44
2018-09-18T03:19:07.162Z,97577.81
2018-09-18T03:21:34.328Z,97572.83
2018-09-18T03:24:01.280Z,97575.19
2018-09-18T03:26:28.251Z,97581.23
2018-09-18T03:28:55.250Z,97575.45
2018-09-18T03:31:22.322Z,97575.45
2018-09-18T03:33:49.241Z,97583.34
2018-09-18T03:36:16.227Z,97574.39
2018-09-18T03:38:43.317Z,97578.60
2018-09-18T03:41:10.254Z,97578.60
2018-09-18T03:43:37.227Z,97580.44
2018-09-18T03:46:04.207Z,97576.50
2018-09-18T03:48:31.347Z,97583.86
2018-09-18T03:50:58.318Z,97580.71
2018-09-18T03:53:25.388Z,97581.23
2018-09-18T03:55:52.338Z,97579.92
2018-09-18T03:58:19.296Z,97574.66
2018-09-18T04:00:46.320Z,97568.09
2018-09-18T04:03:13.275Z,97567.83
2018-09-18T04:05:40.248Z,97573.11
2018-09-18T04:08:07.241Z,97573.90
2018-09-18T04:10:34.206Z,97569.16
2018-09-18T04:13:01.308Z,97571.79
2018-09-18T04:15:28.329Z,97568.38
2018-09-18T04:17:55.664Z,97574.14
2018-09-18T04:20:22.766Z,97573.11
2018-09-18T04:22:49.786Z,97579.40
2018-09-18T04:25:16.778Z,97584.13
2018-09-18T04:27:43.793Z,97587.28
2018-09-18T04:30:10.888Z,97585.45
2018-09-18T04:32:37.905Z,97581.51
2018-09-18T04:35:04.925Z,97576.25
2018-09-18T04:37:31.938Z,97581.51
2018-09-18T04:39:58.966Z,97592.53
2018-09-18T04:42:25.958Z,97588.07
2018-09-18T04:44:52.969Z,97595.16
2018-09-18T04:47:20.022Z,97594.64
2018-09-18T04:49:47.042Z,97585.97
2018-09-18T04:52:13.976Z,97585.69
2018-09-18T04:54:40.964Z,97591.22
2018-09-18T04:57:08.126Z,97589.38
2018-09-18T04:59:35.180Z,97597.78
2018-09-18T05:02:02.346Z,97596.75
2018-09-18T05:04:29.443Z,97599.10
2018-09-18T05:06:56.462Z,97600.94
2018-09-18T05:09:23.477Z,97607.77
2018-09-18T05:11:50.443Z,97609.33
2018-09-18T05:14:17.394Z,97610.40
2018-09-18T05:16:44.386Z,97610.92
2018-09-18T05:19:11.422Z,97606.45
2018-09-18T05:21:38.489Z,97605.15
2018-09-18T05:24:05.462Z,97605.67
2018-09-18T05:26:32.477Z,97605.15
2018-09-18T05:28:59.521Z,97601.72
2018-09-18T05:31:26.685Z,97606.98
2018-09-18T05:33:53.709Z,97607.77
2018-09-18T05:36:20.783Z,97604.08
2018-09-18T05:38:47.780Z,97604.08
2018-09-18T05:41:14.738Z,97599.63
2018-09-18T05:43:41.684Z,97604.88
2018-09-18T05:46:08.613Z,97598.83
2018-09-18T05:48:36.434Z,97604.88
2018-09-18T05:51:03.822Z,97609.61
2018-09-18T05:53:30.799Z,97610.13
2018-09-18T05:55:57.748Z,97611.17
2018-09-18T05:58:24.764Z,97623.78
2018-09-18T06:00:51.715Z,97620.88
2018-09-18T06:03:18.710Z,97628.23
2018-09-18T06:05:45.796Z,97628.23
2018-09-18T06:08:12.742Z,97627.45
2018-09-18T06:10:39.706Z,97624.30
2018-09-18T06:13:06.798Z,97622.19
2018-09-18T06:15:33.757Z,97622.63
2018-09-18T06:18:00.774Z,97629.38
2018-09-18T06:20:27.807Z,97633.38
2018-09-18T06:22:54.875Z,97642.33
2018-09-18T06:25:21.835Z,97625.95
2018-09-18T06:27:48.922Z,97643.39
2018-09-18T06:30:15.853Z,97638.93
2018-09-18T06:32:42.787Z,97638.72
2018-09-18T06:35:09.786Z,97639.23
2018-09-18T06:37:36.765Z,97642.66
2018-09-18T06:40:03.713Z,97639.52
2018-09-18T06:42:30.765Z,97646.87
2018-09-18T06:44:57.784Z,97643.09
2018-09-18T06:47:24.701Z,97645.84
2018-09-18T06:49:51.613Z,97644.22
2018-09-18T06:52:18.549Z,97656.52
2018-09-18T06:54:45.483Z,97654.14
2018-09-18T06:57:12.409Z,97656.92
2018-09-18T06:59:39.308Z,97656.17
2018-09-18T07:02:06.219Z,97660.08
2018-09-18T07:04:33.128Z,97661.17
2018-09-18T07:07:00.042Z,97665.11
2018-09-18T07:09:26.956Z,97656.13
2018-09-18T07:11:53.866Z,97661.56
2018-09-18T07:14:20.809Z,97664.38
2018-09-18T07:16:47.785Z,97662.78
2018-09-18T07:19:15.242Z,97661.67
2018-09-18T07:21:42.150Z,97660.64
2018-09-18T07:24:09.049Z,97664.14
2018-09-18T07:26:35.956Z,97658.12
2018-09-18T07:29:02.860Z,97657.03
2018-09-18T07:31:29.802Z,97659.84
2018-09-18T07:33:56.761Z,97654.10
2018-09-18T07:36:23.643Z,97651.52
2018-09-18T07:38:50.567Z,97659.17
2018-09-18T07:41:17.468Z,97660.25
2018-09-18T07:43:44.381Z,97677.06
2018-09-18T07:46:11.282Z,97670.27
2018-09-18T07:48:39.142Z,97675.03
2018-09-18T07:51:07.095Z,97669.81
2018-09-18T07:53:34.143Z,97673.52
2018-09-18T07:56:01.369Z,97664.11
2018-09-18T07:58:28.462Z,97659.93
2018-09-18T08:00:55.528Z,97653.37
2018-09-18T08:03:22.564Z,97653.92
2018-09-18T08:05:49.633Z,97654.95
2018-09-18T08:08:16.618Z,97655.81
2018-09-18T08:10:43.907Z,97658.44
2018-09-18T08:13:10.870Z,97653.98
2018-09-18T08:15:37.973Z,97647.42
2018-09-18T08:18:04.965Z,97647.70
2018-09-18T08:20:31.943Z,97650.87
2018-09-18T08:22:58.947Z,97656.13
2018-09-18T08:25:26.011Z,97655.09
2018-09-18T08:27:52.874Z,97649.59
2018-09-18T08:30:19.913Z,97657.98
2018-09-18T08:32:46.906Z,97662.44
2018-09-18T08:35:13.823Z,97660.58
2018-09-18T08:37:40.745Z,97646.11
2018-09-18T08:40:07.728Z,97646.91
2018-09-18T08:42:34.585Z,97650.05
2018-09-18T08:45:01.511Z,97653.98
2018-09-18T08:47:28.612Z,97656.61
2018-09-18T08:49:55.656Z,97653.19
2018-09-18T08:52:22.602Z,97658.44
2018-09-18T08:54:49.534Z,97655.57
2018-09-18T08:57:16.478Z,97659.23
2018-09-18T08:59:43.417Z,97646.63
2018-09-18T09:02:10.309Z,97646.11
2018-09-18T09:04:37.235Z,97647.42
2018-09-18T09:07:04.137Z,97648.21
2018-09-18T09:09:31.117Z,97647.94
2018-09-18T09:11:58.022Z,97646.38
2018-09-18T09:14:25.005Z,97648.21
2018-09-18T09:16:51.844Z,97643.76
2018-09-18T09:19:18.816Z,97649.01
2018-09-18T09:21:45.802Z,97649.53
2018-09-18T09:24:12.730Z,97640.38
2018-09-18T09:26:39.808Z,97640.64
2018-09-18T09:29:06.724Z,97642.23
2018-09-18T09:31:33.716Z,97632.77
2018-09-18T09:34:00.747Z,97640.40
2018-09-18T09:36:27.782Z,97633.05
2018-09-18T09:38:54.802Z,97631.52
2018-09-18T09:41:21.759Z,97632.31
2018-09-18T09:43:48.846Z,97632.83
2018-09-18T09:46:15.865Z,97630.48
2018-09-18T09:48:42.852Z,97633.63
2018-09-18T09:51:09.822Z,97631.80
2018-09-18T09:53:36.770Z,97627.06
2018-09-18T09:56:03.937Z,97623.40
2018-09-18T09:58:30.913Z,97617.90
2018-09-18T10:01:03.215Z,97613.41
2018-09-18T10:03:30.207Z,97615.80
2018-09-18T10:05:57.195Z,97619.22
2018-09-18T10:08:24.268Z,97617.90
2018-09-18T10:10:51.408Z,97617.11
2018-09-18T10:13:18.325Z,97618.42
2018-09-18T10:15:45.387Z,97614.75
2018-09-18T10:18:12.474Z,97611.61
2018-09-18T10:20:39.429Z,97608.19
2018-09-18T10:23:06.456Z,97611.09
2018-09-18T10:25:33.438Z,97606.63
2018-09-18T10:28:00.448Z,97617.14
2018-09-18T10:30:27.470Z,97607.67
2018-09-18T10:32:54.496Z,97611.37
2018-09-18T10:35:21.484Z,97603.48
2018-09-18T10:37:48.499Z,97604.28
2018-09-18T10:40:15.513Z,97596.68
2018-09-18T10:42:42.517Z,97603.77
2018-09-18T10:45:09.851Z,97597.99
2018-09-18T10:47:37.187Z,97594.05
2018-09-18T10:50:04.170Z,97587.48
2018-09-18T10:52:31.414Z,97585.66
2018-09-18T10:54:58.385Z,97586.17
2018-09-18T10:57:25.379Z,97588.28
2018-09-18T10:59:52.408Z,97592.50
2018-09-18T11:02:19.488Z,97591.70
2018-09-18T11:04:46.397Z,97580.68
2018-09-18T11:07:13.435Z,97575.42
2018-09-18T11:09:40.433Z,97582.78
2018-09-18T11:12:07.485Z,97581.99
2018-09-18T11:14:34.514Z,97580.16
2018-09-18T11:17:01.460Z,97579.37
2018-09-18T11:19:28.466Z,97584.37
2018-09-18T11:21:55.484Z,97576.50
2018-09-18T11:24:22.466Z,97579.13
2018-09-18T11:26:49.477Z,97582.02
2018-09-18T11:29:16.500Z,97576.50
2018-09-18T11:31:43.490Z,97582.30
2018-09-18T11:34:10.481Z,97582.02
2018-09-18T11:36:37.474Z,97576.55
2018-09-18T11:39:05.082Z,97573.11
2018-09-18T11:41:32.073Z,97576.25
2018-09-18T11:43:59.053Z,97573.92
2018-09-18T11:46:26.044Z,97569.98
2018-09-18T11:48:53.109Z,97570.27
2018-09-18T11:51:20.518Z,97570.78
2018-09-18T11:53:47.527Z,97563.91
2018-09-18T11:56:14.486Z,97557.66
2018-09-18T11:58:41.453Z,97558.96
2018-09-18T12:01:08.455Z,97561.86
2018-09-18T12:03:35.467Z,97561.07
2018-09-18T12:06:02.444Z,97558.72
2018-09-18T12:08:29.421Z,97550.05
2018-09-18T12:10:56.545Z,97550.05
2018-09-18T12:13:23.534Z,97552.67
2018-09-18T12:15:50.729Z,97548.48
2018-09-18T12:18:17.666Z,97551.11
2018-09-18T12:20:44.698Z,97537.19
2018-09-18T12:23:11.676Z,97544.55
2018-09-18T12:25:38.656Z,97541.13
2018-09-18T12:28:05.625Z,97535.88
2018-09-18T12:30:32.649Z,97541.92
2018-09-18T12:32:59.602Z,97538.78
2018-09-18T12:35:26.630Z,97535.36
2018-09-18T12:37:53.657Z,97530.11
2018-09-18T12:40:20.654Z,97530.65
2018-09-18T12:42:47.586Z,97525.13
2018-09-18T12:45:14.534Z,97525.91
2018-09-18T12:47:41.523Z,97520.66
2018-09-18T12:50:08.592Z,97521.45
2018-09-18T12:52:35.505Z,97527.50
2018-09-18T12:55:02.531Z,97518.83
2018-09-18T12:57:29.677Z,97515.16
2018-09-18T12:59:56.597Z,97514.89
2018-09-18T13:02:23.631Z,97515.16
2018-09-18T13:04:50.526Z,97504.44
2018-09-18T13:07:17.502Z,97502.55
2018-09-18T13:09:44.441Z,97498.86
2018-09-18T13:12:11.472Z,97493.06
2018-09-18T13:14:38.472Z,97488.33
2018-09-18T13:17:05.334Z,97490.44
2018-09-18T13:26:33.504Z,97479.14
2018-09-18T13:29:00.462Z,97477.25
2018-09-18T13:31:27.417Z,97483.81
2018-09-18T13:33:54.342Z,97478.08
2018-09-18T13:36:21.313Z,97476.77
2018-09-18T13:38:48.209Z,97480.70
2018-09-18T13:41:15.241Z,97470.99
2018-09-18T13:43:42.246Z,97475.20
2018-09-18T13:46:09.484Z,97473.64
2018-09-18T13:48:36.440Z,97467.34
2018-09-18T13:51:03.371Z,97468.95
2018-09-18T13:53:30.624Z,97465.56
2018-09-18T13:55:57.626Z,97461.08
2018-09-18T13:58:24.554Z,97454.52
2018-09-18T14:00:51.515Z,97457.39
2018-09-18T14:03:18.478Z,97455.01
2018-09-18T14:05:45.448Z,97452.11
2018-09-18T14:08:12.401Z,97450.00
2018-09-18T14:10:39.371Z,97452.63
2018-09-18T14:13:06.493Z,97451.05
2018-09-18T14:15:33.439Z,97454.98
2018-09-18T14:18:00.388Z,97449.73
2018-09-18T14:20:27.356Z,97449.22
2018-09-18T14:22:54.291Z,97445.80
2018-09-18T14:25:21.229Z,97449.73
2018-09-18T14:27:48.167Z,97449.22
2018-09-18T14:30:15.133Z,97451.84
2018-09-18T14:32:42.114Z,97443.69
2018-09-18T14:35:09.391Z,97439.23
2018-09-18T14:37:36.482Z,97437.40
2018-09-18T14:40:03.640Z,97440.02
2018-09-18T14:42:30.697Z,97436.09
2018-09-18T14:44:57.745Z,97432.66
2018-09-18T14:47:24.706Z,97432.14
2018-09-18T14:49:51.664Z,97431.63
2018-09-18T14:52:18.578Z,97436.65
2018-09-18T14:54:45.517Z,97430.35
2018-09-18T14:57:12.480Z,97427.48
2018-09-18T14:59:39.503Z,97427.20
2018-09-18T15:02:07.504Z,97425.10
2018-09-18T15:04:34.553Z,97423.27
2018-09-18T15:07:01.746Z,97425.37
2018-09-18T15:09:28.669Z,97428.52
2018-09-18T15:11:55.682Z,97423.27
2018-09-18T15:14:22.708Z,97414.33
2018-09-18T15:16:49.608Z,97415.91
2018-09-18T15:19:16.578Z,97416.43
2018-09-18T15:21:43.587Z,97414.33
2018-09-18T15:24:10.471Z,97405.13
2018-09-18T15:26:37.442Z,97406.97
2018-09-18T15:29:04.441Z,97410.91
2018-09-18T15:31:31.407Z,97414.84
2018-09-18T15:33:58.386Z,97412.22
2018-09-18T15:36:25.343Z,97408.80
2018-09-18T15:38:52.336Z,97418.00
2018-09-18T15:41:19.285Z,97413.53
2018-09-18T15:43:46.810Z,97418.00
2018-09-18T15:46:13.814Z,97414.05
2018-09-18T15:48:40.771Z,97413.27
2018-09-18T15:51:07.733Z,97412.74
2018-09-18T15:53:34.751Z,97411.16
2018-09-18T15:56:01.713Z,97403.28
2018-09-18T15:58:28.877Z,97404.07
2018-09-18T16:00:55.847Z,97406.70
2018-09-18T16:03:22.775Z,97398.30
2018-09-18T16:05:49.709Z,97407.48
2018-09-18T16:08:16.672Z,97398.30
2018-09-18T16:10:43.605Z,97398.30
2018-09-18T16:13:10.545Z,97397.78
2018-09-18T16:15:37.516Z,97397.78
2018-09-18T16:18:04.514Z,97401.45
2018-09-18T16:20:31.476Z,97390.94
2018-09-18T16:22:58.529Z,97398.81
2018-09-18T16:25:25.466Z,97387.52
2018-09-18T16:27:52.453Z,97392.25
2018-09-18T16:30:20.057Z,97396.98
2018-09-18T16:32:47.022Z,97391.46
2018-09-18T16:35:13.997Z,97398.03
2018-09-18T16:37:40.981Z,97396.44
2018-09-18T16:40:07.967Z,97407.73
2018-09-18T16:42:34.939Z,97404.32
2018-09-18T16:45:01.879Z,97413.24
2018-09-18T16:47:28.812Z,97415.34
2018-09-18T16:49:55.767Z,97412.20
2018-09-18T16:52:22.736Z,97413.78
2018-09-18T16:54:49.715Z,97412.47
2018-09-18T16:57:16.676Z,97419.30
2018-09-18T16:59:43.689Z,97422.74
2018-09-18T17:02:10.682Z,97414.09
2018-09-18T17:04:37.601Z,97416.20
2018-09-18T17:07:04.816Z,97424.34
2018-09-18T17:09:31.762Z,97421.97
2018-09-18T17:11:58.722Z,97423.81
2018-09-18T17:14:25.674Z,97421.44
2018-09-18T17:16:52.595Z,97427.48
2018-09-18T17:19:19.605Z,97429.06
2018-09-18T17:21:46.581Z,97430.64
2018-09-18T17:24:13.534Z,97429.60
2018-09-18T17:26:40.504Z,97430.13
2018-09-18T17:29:07.476Z,97430.42
2018-09-18T17:31:34.417Z,97427.82
2018-09-18T17:34:01.345Z,97432.03
2018-09-18T17:36:28.593Z,97436.74
2018-09-18T17:38:55.525Z,97439.91
2018-09-18T17:41:22.448Z,97443.33
2018-09-18T17:43:49.384Z,97440.95
2018-09-18T17:46:16.349Z,97447.25
2018-09-18T17:48:43.289Z,97451.19
2018-09-18T17:51:10.342Z,97457.25
2018-09-18T17:53:37.357Z,97461.47
2018-09-18T17:56:04.308Z,97462.78
2018-09-18T17:58:31.366Z,97466.20
2018-09-18T18:00:58.404Z,97469.09
2018-09-18T18:03:25.388Z,97474.34
2018-09-18T18:05:52.664Z,97479.08
2018-09-18T18:08:19.698Z,97481.19
2018-09-18T18:10:46.633Z,97480.64
2018-09-18T18:13:13.611Z,97488.00
2018-09-18T18:15:40.641Z,97487.73
2018-09-18T18:18:07.630Z,97495.36
2018-09-18T18:20:34.725Z,97502.48
2018-09-18T18:23:01.762Z,97498.53
2018-09-18T18:25:28.727Z,97508.77
2018-09-18T18:27:55.771Z,97508.77
2018-09-18T18:30:22.766Z,97508.25
2018-09-18T18:32:49.763Z,97520.32
2018-09-18T18:35:16.838Z,97526.09
2018-09-18T18:37:43.883Z,97519.00
2018-09-18T18:40:10.893Z,97518.48
2018-09-18T18:42:37.877Z,97524.53
2018-09-18T18:45:05.191Z,97526.64
2018-09-18T18:47:33.673Z,97535.31
2018-09-18T18:50:02.703Z,97536.63
2018-09-18T18:52:30.881Z,97543.98
2018-09-18T18:54:57.950Z,97545.82
2018-09-18T18:57:24.964Z,97547.66
2018-09-18T18:59:52.037Z,97556.33
2018-09-18T19:02:19.135Z,97561.58
2018-09-18T19:04:46.095Z,97562.89
2018-09-18T19:07:13.797Z,97560.54
2018-09-18T19:09:41.323Z,97566.31
2018-09-18T19:12:08.502Z,97572.36
2018-09-18T19:14:35.642Z,97576.30
2018-09-18T19:17:02.732Z,97578.14
2018-09-18T19:19:29.921Z,97577.34
2018-09-18T19:21:57.050Z,97584.45
2018-09-18T19:24:24.270Z,97588.12
2018-09-18T19:26:51.495Z,97588.92
2018-09-18T19:29:18.709Z,97588.12
2018-09-18T19:31:46.259Z,97587.60
2018-09-18T19:34:13.458Z,97590.75
2018-09-18T19:36:43.021Z,97590.23
2018-09-18T19:39:10.908Z,97595.21
2018-09-18T19:41:38.182Z,97596.00
2018-09-18T19:44:05.931Z,97594.69
2018-09-18T19:46:34.994Z,97593.37
2018-09-18T19:49:02.426Z,97593.90
2018-09-18T19:51:29.529Z,97597.31
2018-09-18T19:53:57.090Z,97602.05
2018-09-18T19:56:25.834Z,97602.05
2018-09-18T19:58:53.971Z,97601.53
2018-09-18T20:01:21.822Z,97603.64
2018-09-18T20:03:48.874Z,97610.20
2018-09-18T20:06:15.896Z,97620.72
2018-09-18T20:08:42.927Z,97607.58
2018-09-18T20:11:09.937Z,97617.30
2018-09-18T20:13:36.925Z,97616.25
2018-09-18T20:16:03.918Z,97617.56
2018-09-18T20:18:30.920Z,97619.41
2018-09-18T20:20:57.990Z,97622.33
2018-09-18T20:23:24.988Z,97621.02
2018-09-18T20:25:52.041Z,97631.22
2018-09-18T20:28:19.067Z,97630.43
2018-09-18T20:30:46.055Z,97632.02
2018-09-18T20:33:12.984Z,97638.89
2018-09-18T20:35:40.012Z,97639.90
2018-09-18T20:38:06.990Z,97638.09
2018-09-18T20:40:33.971Z,97634.95
2018-09-18T20:43:00.969Z,97648.60
2018-09-18T20:45:27.965Z,97659.11
2018-09-18T20:47:55.072Z,97658.81
2018-09-18T20:50:24.060Z,97663.05
2018-09-18T20:52:51.067Z,97666.48
2018-09-18T20:55:18.046Z,97662.23
2018-09-18T20:57:45.005Z,97662.02
2018-09-18T21:00:11.993Z,97660.42
2018-09-18T21:02:38.948Z,97652.23
2018-09-18T21:05:05.917Z,97661.22
2018-09-18T21:07:32.864Z,97659.11
2018-09-18T21:09:59.861Z,97653.34
2018-09-18T21:12:26.826Z,97651.50
2018-09-18T21:14:53.814Z,97646.25
2018-09-18T21:17:20.755Z,97642.83
2018-09-18T21:19:47.752Z,97651.50
2018-09-18T21:22:14.825Z,97652.82
2018-09-18T21:24:41.801Z,97658.08
2018-09-18T21:27:08.749Z,97661.50
2018-09-18T21:29:35.723Z,97656.76
2018-09-18T21:32:02.666Z,97653.61
2018-09-18T21:34:29.634Z,97660.70
2018-09-18T21:36:56.642Z,97664.13
2018-09-18T21:39:23.615Z,97662.81
2018-09-18T21:41:50.702Z,97659.91
2018-09-18T21:44:17.670Z,97664.13
2018-09-18T21:46:44.649Z,97660.18
2018-09-18T21:49:11.603Z,97663.60
2018-09-18T21:51:38.578Z,97664.91
2018-09-18T21:54:05.525Z,97669.37
2018-09-18T21:56:32.482Z,97669.37
2018-09-18T21:58:59.449Z,97673.59
2018-09-18T22:01:26.469Z,97672.00
2018-09-18T22:03:53.375Z,97682.52
2018-09-18T22:06:20.447Z,97685.94
2018-09-18T22:08:47.430Z,97683.30
2018-09-18T22:11:14.377Z,97688.05
2018-09-18T22:13:41.410Z,97687.25
2018-09-18T22:16:08.426Z,97681.20
2018-09-18T22:18:35.408Z,97681.20
2018-09-18T22:21:02.366Z,97668.74
2018-09-18T22:23:29.336Z,97679.37
2018-09-18T22:25:56.338Z,97677.26
2018-09-18T22:28:23.323Z,97677.26
2018-09-18T22:30:50.364Z,97670.97
2018-09-18T22:33:17.339Z,97674.91
2018-09-18T22:35:44.291Z,97682.78
2018-09-18T22:38:11.289Z,97681.47
2018-09-18T22:40:38.249Z,97688.31
2018-09-18T22:43:05.229Z,97679.37
2018-09-18T22:45:32.308Z,97682.78
2018-09-18T22:47:59.293Z,97683.58
2018-09-18T22:50:26.347Z,97684.10
2018-09-18T22:52:53.356Z,97687.25
2018-09-18T22:55:20.354Z,97680.16
2018-09-18T22:57:47.362Z,97680.68
2018-09-18T23:00:14.397Z,97666.23
2018-09-18T23:02:41.371Z,97671.48
2018-09-18T23:05:08.714Z,97675.42
2018-09-18T23:07:35.727Z,97677.53
2018-09-18T23:10:03.186Z,97683.58
2018-09-18T23:12:30.324Z,97690.67
2018-09-18T23:14:57.340Z,97696.99
2018-09-18T23:17:24.320Z,97699.86
2018-09-18T23:19:51.300Z,97702.49
2018-09-18T23:22:18.312Z,97702.49
2018-09-18T23:24:45.284Z,97701.97
2018-09-18T23:27:12.245Z,97698.55
2018-09-18T23:29:39.223Z,97694.09
2018-09-18T23:32:06.272Z,97690.15
2018-09-18T23:34:33.267Z,97692.78
2018-09-18T23:37:00.259Z,97689.36
2018-09-18T23:39:27.225Z,97691.46
2018-09-18T23:41:54.191Z,97698.83
2018-09-18T23:44:21.167Z,97695.92
2018-09-18T23:46:48.147Z,97694.09
2018-09-18T23:49:15.100Z,97699.34
2018-09-18T23:51:42.041Z,97703.81
2018-09-18T23:54:09.064Z,97706.44
2018-09-18T23:56:36.056Z,97705.91
2018-09-18T23:59:03.034Z,97706.19
